Terminal Aerodrome Forecast
Issued by NWS Billings, MT

Home | Current Version | Previous Version | Text Only | Print | Product List | Glossary On
Versions: 1 2 3 4 5 6 7 8 9 10 11 12
000
FTUS45 KBYZ 271721
TAFBIL
TAF
KBIL 271721Z 2718/2818 23008KT P6SM BKN080
     FM280000 04008KT P6SM VCSH SCT060 BKN080
     FM280800 02012KT P6SM -SHRA BKN015 OVC025
     FM281000 36012KT 3SM -SHRA BR BKN008 OVC015=

USA.gov is the U.S. government's official web portal to all federal, state and local government web resources and services.